KABQ/ABQ METAR and TAF weather

Enter ICAO airport designator
Station Type Date Time Source
KABQ METAR 2020/01/21 17:52 UTC NOAA

KABQ 211752Z 24006KT 9SM -RA OVC036 05/01 A3015 RMK AO2 RAB43 SLP200 MTNS OBSC NE AND SE P0000 60000 T00500006 10061 20028 58008


Station Type Date Time Source
KABQ Decoded METAR 2020/01/21 17:52 UTC NOAA

ALBUQUERQUE INTERNATIONAL AIRPORT, NM, United States (KABQ) 35-02N 106-36W 1618M
Jan 21, 2020 - 12:52 PM EST / 2020.01.21 1752 UTC
Wind: from the WSW (240 degrees) at 7 MPH (6 KT):0
Visibility: 9 mile(s):0
Sky conditions: overcast
Weather: light rain
Precipitation last hour: A trace
Temperature: 41.0 F (5.0 C)
Dew Point: 33.1 F (0.6 C)
Relative Humidity: 73%
Pressure (altimeter): 30.15 in. Hg (1020 hPa)
Pressure tendency: 0.02 inches (0.8 hPa) lower than three hours ago
ob: KABQ 211752Z 24006KT 9SM -RA OVC036 05/01 A3015 RMK AO2 RAB43 SLP200 MTNS OBSC NE AND SE P0000 60000 T00500006 10061 20028 58008
cycle: 18

Station Type Date Time Source
KABQ TAF 2020/01/21 18:42 UTC NOAA

TAF KABQ 211738Z 2118/2218 VRB05KT P6SM -RA OVC035
TEMPO 2120/2124 5SM -RA BR OVC025
FM220000 23006KT 6SM BR OVC015
FM220800 30006KT 2SM BR OVC009
FM221500 32006KT P6SM SCT015

Example: see airport list